createdAt,value
2018-12-27T00:00:23.542Z,26.87
2018-12-27T00:03:28.574Z,23.20
2018-12-27T00:06:33.599Z,25.03
2018-12-27T00:09:38.587Z,28.13
2018-12-27T00:12:43.544Z,24.73
2018-12-27T00:15:48.615Z,27.60
2018-12-27T00:18:53.584Z,23.87
2018-12-27T00:21:58.579Z,26.73
2018-12-27T00:25:03.676Z,23.50
2018-12-27T00:28:08.627Z,24.17
2018-12-27T00:31:13.743Z,25.73
2018-12-27T00:34:18.859Z,25.13
2018-12-27T00:37:23.999Z,28.47
2018-12-27T00:40:29.126Z,25.93
2018-12-27T00:43:34.232Z,31.97
2018-12-27T00:46:39.343Z,27.37
2018-12-27T00:49:44.460Z,26.37
2018-12-27T00:52:49.584Z,26.27
2018-12-27T00:55:54.770Z,29.23
2018-12-27T00:58:59.878Z,26.60
2018-12-27T01:02:05.199Z,22.73
2018-12-27T01:05:10.327Z,24.27
2018-12-27T01:08:15.428Z,24.20
2018-12-27T01:11:20.557Z,24.77
2018-12-27T01:14:25.666Z,23.43
2018-12-27T01:17:30.774Z,24.13
2018-12-27T01:20:35.874Z,21.60
2018-12-27T01:23:40.998Z,21.60
2018-12-27T01:26:46.111Z,21.77
2018-12-27T01:29:51.231Z,23.00
2018-12-27T01:32:56.344Z,22.00
2018-12-27T01:36:01.463Z,22.70
2018-12-27T01:39:07.075Z,20.83
2018-12-27T01:42:12.216Z,20.20
2018-12-27T01:45:17.403Z,20.27
2018-12-27T01:48:22.598Z,21.83
2018-12-27T01:51:27.755Z,22.17
2018-12-27T01:54:32.875Z,19.97
2018-12-27T01:57:38.002Z,21.90
2018-12-27T02:00:43.128Z,20.87
2018-12-27T02:03:48.277Z,21.10
2018-12-27T02:06:53.403Z,20.73
2018-12-27T02:09:58.524Z,18.50
2018-12-27T02:13:03.653Z,19.60
2018-12-27T02:16:08.787Z,20.53
2018-12-27T02:19:13.901Z,21.07
2018-12-27T02:22:19.024Z,21.30
2018-12-27T02:25:24.142Z,22.07
2018-12-27T02:28:29.280Z,23.80
2018-12-27T02:31:34.393Z,20.90
2018-12-27T02:34:39.520Z,21.27
2018-12-27T02:37:44.640Z,22.90
2018-12-27T02:40:49.763Z,18.13
2018-12-27T02:43:54.890Z,21.30
2018-12-27T02:46:59.996Z,20.23
2018-12-27T02:50:05.121Z,19.07
2018-12-27T02:53:10.272Z,20.70
2018-12-27T02:56:15.395Z,22.07
2018-12-27T02:59:20.523Z,21.80
2018-12-27T03:02:25.641Z,20.67
2018-12-27T03:05:30.754Z,22.97
2018-12-27T03:08:35.884Z,22.23
2018-12-27T03:11:40.999Z,22.97
2018-12-27T03:14:46.143Z,21.50
2018-12-27T03:17:51.248Z,21.40
2018-12-27T03:20:56.380Z,23.33
2018-12-27T03:24:01.526Z,23.43
2018-12-27T03:27:06.640Z,21.83
2018-12-27T03:30:11.777Z,21.00
2018-12-27T03:33:16.961Z,20.57
2018-12-27T03:36:22.090Z,21.90
2018-12-27T03:39:27.225Z,19.90
2018-12-27T03:42:32.348Z,21.03
2018-12-27T03:45:37.569Z,23.73
2018-12-27T03:48:42.747Z,24.10
2018-12-27T03:51:47.879Z,23.43
2018-12-27T03:54:52.996Z,23.00
2018-12-27T03:57:58.127Z,22.70
2018-12-27T04:01:03.281Z,23.70
2018-12-27T04:04:08.412Z,21.70
2018-12-27T04:07:13.541Z,22.33
2018-12-27T04:10:18.756Z,22.07
2018-12-27T04:13:23.945Z,24.13
2018-12-27T04:16:28.989Z,23.77
2018-12-27T04:19:33.981Z,21.07
2018-12-27T04:22:39.017Z,22.27
2018-12-27T04:25:44.145Z,20.13
2018-12-27T04:28:49.111Z,20.43
2018-12-27T04:31:55.455Z,24.57
2018-12-27T04:35:00.662Z,21.50
2018-12-27T04:38:05.713Z,19.70
2018-12-27T04:41:10.905Z,21.23
2018-12-27T04:44:16.084Z,20.47
2018-12-27T04:47:21.132Z,21.97
2018-12-27T04:50:26.103Z,20.60
2018-12-27T04:53:31.152Z,23.87
2018-12-27T04:56:36.211Z,21.73
2018-12-27T04:59:41.183Z,19.60
2018-12-27T05:02:46.266Z,21.07
2018-12-27T05:05:51.325Z,23.47
2018-12-27T05:08:56.360Z,22.23
2018-12-27T05:12:01.415Z,24.80
2018-12-27T05:15:06.473Z,20.57
2018-12-27T05:18:11.502Z,23.73
2018-12-27T05:21:17.009Z,25.40
2018-12-27T05:24:22.696Z,26.00
2018-12-27T05:27:27.659Z,25.40
2018-12-27T05:30:32.955Z,23.63
2018-12-27T05:33:38.215Z,26.27
2018-12-27T05:36:43.585Z,28.73
2018-12-27T05:39:48.759Z,24.67
2018-12-27T05:42:54.204Z,26.40
2018-12-27T05:45:59.378Z,24.80
2018-12-27T05:49:04.660Z,24.70
2018-12-27T05:52:09.711Z,25.93
2018-12-27T05:55:14.747Z,29.33
2018-12-27T05:58:19.800Z,32.80
2018-12-27T06:01:24.778Z,26.03
2018-12-27T06:04:33.741Z,22.80
2018-12-27T06:07:36.575Z,26.20
2018-12-27T06:10:41.542Z,27.20
2018-12-27T06:13:46.636Z,25.50
2018-12-27T06:16:51.615Z,22.90
2018-12-27T06:19:56.666Z,23.13
2018-12-27T06:23:01.632Z,26.17
2018-12-27T06:26:06.604Z,26.73
2018-12-27T06:29:11.636Z,25.93
2018-12-27T06:32:16.608Z,26.03
2018-12-27T06:35:21.563Z,24.73
2018-12-27T06:38:26.605Z,27.77
2018-12-27T06:41:32.404Z,27.77
2018-12-27T06:44:37.435Z,27.53
2018-12-27T06:47:42.479Z,28.57
2018-12-27T06:50:47.609Z,30.07
2018-12-27T06:53:52.561Z,28.77
2018-12-27T06:56:57.544Z,31.70
2018-12-27T07:00:02.583Z,26.50
2018-12-27T07:03:07.635Z,28.53
2018-12-27T07:06:12.609Z,29.03
2018-12-27T07:09:17.732Z,28.57
2018-12-27T07:12:22.776Z,30.10
2018-12-27T07:15:27.755Z,28.80
2018-12-27T07:18:34.190Z,27.27
2018-12-27T07:21:39.240Z,26.70
2018-12-27T07:24:44.200Z,28.47
2018-12-27T07:27:49.167Z,30.97
2018-12-27T07:30:54.208Z,33.00
2018-12-27T07:33:59.263Z,27.63
2018-12-27T07:37:04.379Z,33.33
2018-12-27T07:40:09.535Z,29.30
2018-12-27T07:43:14.516Z,29.03
2018-12-27T07:46:19.493Z,28.87
2018-12-27T07:49:24.464Z,26.90
2018-12-27T07:52:29.494Z,30.60
2018-12-27T07:55:34.548Z,31.67
2018-12-27T07:58:39.575Z,27.37
2018-12-27T08:01:44.536Z,29.80
2018-12-27T08:04:49.592Z,29.30
2018-12-27T08:07:54.551Z,30.80
2018-12-27T08:10:59.528Z,33.13
2018-12-27T08:14:04.659Z,29.97
2018-12-27T08:17:09.761Z,27.30
2018-12-27T08:20:14.809Z,30.13
2018-12-27T08:23:19.844Z,34.10
2018-12-27T08:26:24.836Z,30.77
2018-12-27T08:29:29.870Z,31.37
2018-12-27T08:32:34.899Z,30.50
2018-12-27T08:35:39.940Z,31.53
2018-12-27T08:38:44.992Z,33.20
2018-12-27T08:41:49.967Z,28.60
2018-12-27T08:44:54.967Z,35.90
2018-12-27T08:47:59.948Z,34.33
2018-12-27T08:51:05.076Z,32.57
2018-12-27T08:54:10.295Z,34.03
2018-12-27T08:57:15.819Z,31.63
2018-12-27T09:00:20.787Z,31.87
2018-12-27T09:03:25.882Z,26.30
2018-12-27T09:06:30.855Z,30.37
2018-12-27T09:09:35.909Z,28.63
2018-12-27T09:12:41.424Z,25.40
2018-12-27T09:15:46.455Z,25.83
2018-12-27T09:18:51.490Z,29.53
2018-12-27T09:21:56.472Z,25.53
2018-12-27T09:25:01.519Z,25.07
2018-12-27T09:28:06.973Z,26.60
2018-12-27T09:31:12.011Z,30.53
2018-12-27T09:34:16.971Z,29.10
2018-12-27T09:37:21.991Z,30.17
2018-12-27T09:40:27.088Z,26.10
2018-12-27T09:43:32.162Z,26.17
2018-12-27T09:46:37.487Z,27.80
2018-12-27T09:49:42.450Z,30.57
2018-12-27T09:52:47.403Z,31.40
2018-12-27T09:55:52.371Z,28.10
2018-12-27T09:58:57.312Z,25.77
2018-12-27T10:02:02.371Z,26.70
2018-12-27T10:05:07.399Z,27.53
2018-12-27T10:08:12.411Z,29.77
2018-12-27T10:11:17.380Z,26.73
2018-12-27T10:14:22.335Z,26.30
2018-12-27T10:17:27.400Z,29.60
2018-12-27T10:20:32.456Z,29.57
2018-12-27T10:23:37.404Z,27.00
2018-12-27T10:26:42.368Z,29.67
2018-12-27T10:29:47.315Z,30.13
2018-12-27T10:32:52.350Z,29.47
2018-12-27T10:35:57.473Z,21.43
2018-12-27T10:39:09.098Z,26.47
2018-12-27T10:42:14.224Z,23.53
2018-12-27T10:45:19.243Z,25.33
2018-12-27T10:48:24.301Z,24.20
2018-12-27T10:51:29.276Z,24.37
2018-12-27T10:54:34.382Z,28.17
2018-12-27T10:57:39.411Z,27.30
2018-12-27T11:00:44.451Z,24.10
2018-12-27T11:03:49.408Z,27.70
2018-12-27T11:06:55.803Z,26.53
2018-12-27T11:10:00.996Z,22.40
2018-12-27T11:13:06.027Z,25.90
2018-12-27T11:16:10.977Z,24.27
2018-12-27T11:19:16.020Z,22.57
2018-12-27T11:22:21.044Z,24.43
2018-12-27T11:25:26.011Z,24.63
2018-12-27T11:28:30.992Z,23.27
2018-12-27T11:31:35.938Z,26.30
2018-12-27T11:34:40.972Z,23.67
2018-12-27T11:37:45.997Z,23.97
2018-12-27T11:40:50.968Z,24.77
2018-12-27T11:43:56.012Z,25.40
2018-12-27T11:47:00.966Z,25.30
2018-12-27T11:50:06.158Z,22.50
2018-12-27T11:53:11.196Z,26.63
2018-12-27T11:56:16.230Z,24.60
2018-12-27T11:59:21.178Z,26.50
2018-12-27T12:02:31.025Z,26.57
2018-12-27T12:05:32.823Z,25.73
2018-12-27T12:08:37.851Z,26.40
2018-12-27T12:11:42.815Z,21.23
2018-12-27T12:14:47.771Z,26.67
2018-12-27T12:17:52.734Z,25.03
2018-12-27T12:20:57.799Z,22.30
2018-12-27T12:24:02.953Z,21.50
2018-12-27T12:27:07.916Z,23.27
2018-12-27T12:30:13.007Z,24.80
2018-12-27T12:33:18.124Z,22.70
2018-12-27T12:36:23.348Z,26.90
2018-12-27T12:39:28.477Z,22.93
2018-12-27T12:42:33.453Z,22.27
2018-12-27T12:45:38.555Z,23.50
2018-12-27T12:48:43.668Z,22.80
2018-12-27T12:51:48.848Z,26.93
2018-12-27T12:54:53.881Z,27.60
2018-12-27T12:57:59.911Z,22.07
2018-12-27T13:01:05.042Z,21.27
2018-12-27T13:04:10.075Z,22.43
2018-12-27T13:07:15.179Z,28.47
2018-12-27T13:10:20.220Z,27.70
2018-12-27T13:13:25.277Z,20.70
2018-12-27T13:16:30.306Z,21.20
2018-12-27T13:19:35.375Z,21.20
2018-12-27T13:22:40.403Z,22.47
2018-12-27T13:25:45.543Z,21.17
2018-12-27T13:28:50.580Z,24.20
2018-12-27T13:31:55.532Z,23.47
2018-12-27T13:35:00.567Z,21.77
2018-12-27T13:38:05.584Z,22.30
2018-12-27T13:41:10.667Z,23.70
2018-12-27T13:44:15.781Z,21.30
2018-12-27T13:47:21.659Z,26.17
2018-12-27T13:50:26.701Z,24.93
2018-12-27T13:53:31.648Z,20.73
2018-12-27T13:56:36.788Z,24.83
2018-12-27T13:59:41.846Z,24.43
2018-12-27T14:02:46.817Z,21.37
2018-12-27T14:05:51.874Z,21.77
2018-12-27T14:08:56.828Z,21.43
2018-12-27T14:12:01.801Z,18.20
2018-12-27T14:15:07.227Z,22.17
2018-12-27T14:18:12.351Z,20.40
2018-12-27T14:21:17.306Z,19.10
2018-12-27T14:24:22.279Z,22.17
2018-12-27T14:27:27.227Z,21.90
2018-12-27T14:30:32.188Z,20.60
2018-12-27T14:33:37.212Z,22.00
2018-12-27T14:36:42.267Z,22.63
2018-12-27T14:39:47.368Z,21.73
2018-12-27T14:42:52.330Z,20.80
2018-12-27T14:45:57.315Z,24.87
2018-12-27T14:49:02.280Z,21.73
2018-12-27T14:52:07.239Z,21.30
2018-12-27T14:55:12.279Z,20.20
2018-12-27T14:58:17.243Z,21.00
2018-12-27T15:01:22.276Z,21.77
2018-12-27T15:04:27.324Z,20.20
2018-12-27T15:07:32.299Z,18.17
2018-12-27T15:10:37.256Z,20.40
2018-12-27T15:13:42.319Z,21.40
2018-12-27T15:16:47.290Z,22.77
2018-12-27T15:19:52.276Z,20.67
2018-12-27T15:22:57.291Z,21.07
2018-12-27T15:26:02.400Z,20.07
2018-12-27T15:29:07.379Z,24.33
2018-12-27T15:32:12.431Z,23.13
2018-12-27T15:35:17.547Z,21.73
2018-12-27T15:38:22.588Z,18.60
2018-12-27T15:41:27.543Z,23.57
2018-12-27T15:44:32.521Z,23.50
2018-12-27T15:47:37.467Z,22.77
2018-12-27T15:50:42.459Z,21.70
2018-12-27T15:53:47.574Z,19.40
2018-12-27T15:56:52.614Z,20.90
2018-12-27T15:59:58.670Z,26.47
2018-12-27T16:03:03.713Z,23.77
2018-12-27T16:06:10.176Z,22.80
2018-12-27T16:09:15.125Z,23.33
2018-12-27T16:12:20.228Z,27.73
2018-12-27T16:15:25.188Z,22.07
2018-12-27T16:18:30.211Z,24.57
2018-12-27T16:21:35.177Z,26.87
2018-12-27T16:24:40.175Z,29.37
2018-12-27T16:27:45.152Z,25.30
2018-12-27T16:30:50.110Z,21.00
2018-12-27T16:33:55.071Z,21.33
2018-12-27T16:37:00.193Z,27.17
2018-12-27T16:40:06.279Z,20.97
2018-12-27T16:43:11.433Z,24.40
2018-12-27T16:46:16.388Z,26.07
2018-12-27T16:49:21.349Z,23.00
2018-12-27T16:52:26.389Z,25.90
2018-12-27T16:55:31.426Z,29.10
2018-12-27T16:58:36.418Z,23.97
2018-12-27T17:01:41.383Z,25.33
2018-12-27T17:04:46.412Z,29.30
2018-12-27T17:07:53.487Z,30.30
2018-12-27T17:10:58.456Z,26.77
2018-12-27T17:14:03.566Z,27.23
2018-12-27T17:17:08.623Z,28.55
2018-12-27T17:20:13.572Z,26.60
2018-12-27T17:23:18.535Z,27.50
2018-12-27T17:26:23.580Z,25.53
2018-12-27T17:29:28.604Z,28.00
2018-12-27T17:32:33.726Z,62.03
2018-12-27T17:35:38.735Z,33.13
2018-12-27T17:38:43.711Z,32.00
2018-12-27T17:41:48.738Z,33.87
2018-12-27T17:44:53.771Z,31.90
2018-12-27T17:47:58.816Z,35.30
2018-12-27T17:51:03.966Z,34.60
2018-12-27T17:54:09.000Z,33.47
2018-12-27T17:57:15.513Z,31.03
2018-12-27T18:00:21.787Z,37.17
2018-12-27T18:03:26.838Z,36.47
2018-12-27T18:06:31.786Z,41.33
2018-12-27T18:09:36.866Z,31.70
2018-12-27T18:12:41.886Z,34.87
2018-12-27T18:15:46.919Z,69.40
2018-12-27T18:18:51.879Z,57.73
2018-12-27T18:21:56.916Z,59.20
2018-12-27T18:25:01.957Z,45.90
2018-12-27T18:28:07.063Z,51.97
2018-12-27T18:31:12.124Z,53.00
2018-12-27T18:34:17.159Z,41.00
2018-12-27T18:37:22.204Z,42.90
2018-12-27T18:40:27.352Z,31.40
2018-12-27T18:43:32.644Z,31.33
2018-12-27T18:46:38.152Z,31.53
2018-12-27T18:49:43.306Z,26.07
2018-12-27T18:52:48.708Z,36.90
2018-12-27T18:55:53.912Z,33.53
2018-12-27T18:58:59.271Z,32.70
2018-12-27T19:02:04.454Z,33.30
2018-12-27T19:05:09.705Z,50.67
2018-12-27T19:08:14.659Z,41.20
2018-12-27T19:11:55.090Z,36.93
2018-12-27T19:15:04.334Z,33.33
2018-12-27T19:18:41.707Z,30.97
2018-12-27T19:22:23.423Z,32.57
2018-12-27T19:25:28.619Z,35.13
2018-12-27T19:28:33.730Z,32.93
2018-12-27T19:31:39.439Z,36.93
2018-12-27T19:34:44.587Z,56.40
2018-12-27T19:37:52.277Z,42.10
2018-12-27T19:40:56.950Z,38.83
2018-12-27T19:44:02.387Z,36.53
2018-12-27T19:47:07.536Z,43.07
2018-12-27T19:50:13.012Z,34.80
2018-12-27T19:53:18.563Z,34.07
2018-12-27T19:56:23.537Z,33.80
2018-12-27T19:59:28.689Z,38.77
2018-12-27T20:02:33.799Z,31.10
2018-12-27T20:05:38.868Z,36.40
2018-12-27T20:08:43.971Z,33.80
2018-12-27T20:11:49.061Z,34.13
2018-12-27T20:14:54.121Z,33.83
2018-12-27T20:17:59.149Z,30.40
2018-12-27T20:21:04.309Z,35.57
2018-12-27T20:24:09.448Z,33.20
2018-12-27T20:27:14.497Z,31.77
2018-12-27T20:30:19.466Z,37.40
2018-12-27T20:33:24.424Z,36.27
2018-12-27T20:36:29.415Z,35.37
2018-12-27T20:39:34.454Z,33.57
2018-12-27T20:42:39.454Z,33.13
2018-12-27T20:45:44.506Z,32.63
2018-12-27T20:48:49.468Z,32.07
2018-12-27T20:51:54.624Z,33.77
2018-12-27T20:54:59.670Z,32.20
2018-12-27T20:58:04.928Z,29.70
2018-12-27T21:01:10.082Z,27.10
2018-12-27T21:04:15.168Z,28.57
2018-12-27T21:07:20.268Z,36.47
2018-12-27T21:10:25.304Z,36.40
2018-12-27T21:13:30.432Z,31.20
2018-12-27T21:16:35.480Z,31.63
2018-12-27T21:19:41.015Z,29.77
2018-12-27T21:22:46.243Z,28.90
2018-12-27T21:25:51.243Z,30.53
2018-12-27T21:28:56.247Z,26.83
2018-12-27T21:32:01.725Z,28.20
2018-12-27T21:35:06.823Z,26.37
2018-12-27T21:38:12.323Z,28.10
2018-12-27T21:41:17.530Z,32.03
2018-12-27T21:44:23.004Z,33.90
2018-12-27T21:47:28.151Z,28.13
2018-12-27T21:50:33.468Z,30.33
2018-12-27T21:53:38.619Z,28.77
2018-12-27T21:56:44.204Z,32.73
2018-12-27T21:59:49.448Z,28.30
2018-12-27T22:02:54.488Z,29.50
2018-12-27T22:05:59.515Z,29.50
2018-12-27T22:09:06.359Z,32.17
2018-12-27T22:12:11.629Z,31.23
2018-12-27T22:15:16.808Z,29.93
2018-12-27T22:18:22.213Z,29.00
2018-12-27T22:21:27.492Z,35.27
2018-12-27T22:24:32.622Z,33.20
2018-12-27T22:27:37.785Z,32.10
2018-12-27T22:30:42.815Z,32.40
2018-12-27T22:33:47.895Z,34.23
2018-12-27T22:36:52.923Z,31.17
2018-12-27T22:39:57.983Z,34.67
2018-12-27T22:43:03.086Z,35.67
2018-12-27T22:46:08.161Z,30.97
2018-12-27T22:49:13.129Z,36.07
2018-12-27T22:52:18.285Z,32.27
2018-12-27T22:55:23.429Z,31.60
2018-12-27T22:58:28.437Z,32.30
2018-12-27T23:01:33.625Z,32.50
2018-12-27T23:04:38.751Z,29.17
2018-12-27T23:07:43.758Z,30.63
2018-12-27T23:10:48.799Z,36.00
2018-12-27T23:13:53.791Z,27.03
2018-12-27T23:16:58.861Z,29.83
2018-12-27T23:20:04.064Z,32.43
2018-12-27T23:23:09.044Z,29.20
2018-12-27T23:26:14.106Z,28.10
2018-12-27T23:29:19.171Z,31.00
2018-12-27T23:32:24.131Z,38.27
2018-12-27T23:35:29.096Z,30.53
2018-12-27T23:38:34.089Z,33.87
2018-12-27T23:41:39.074Z,31.20
2018-12-27T23:44:44.036Z,29.43
2018-12-27T23:47:50.069Z,29.67
2018-12-27T23:50:56.178Z,28.20
2018-12-27T23:54:02.263Z,25.97
2018-12-27T23:57:08.555Z,25.67
